sensor_id;sensor_type;location;lat;lon;timestamp;pressure;altitude;pressure_sealevel;temperature;humidity
61035;BME280;46916;40.564;-7.958;2023-03-25T00:01:17;98072.16;;;12.28;68.61
61035;BME280;46916;40.564;-7.958;2023-03-25T00:03:19;98078.38;;;12.27;68.57
61035;BME280;46916;40.564;-7.958;2023-03-25T00:05:21;98082.91;;;12.25;68.61
61035;BME280;46916;40.564;-7.958;2023-03-25T00:07:22;98083.16;;;12.22;68.60
61035;BME280;46916;40.564;-7.958;2023-03-25T00:09:23;98090.31;;;12.20;68.88
61035;BME280;46916;40.564;-7.958;2023-03-25T00:11:23;98086.03;;;12.19;68.58
61035;BME280;46916;40.564;-7.958;2023-03-25T00:13:25;98089.84;;;12.14;68.86
61035;BME280;46916;40.564;-7.958;2023-03-25T00:15:26;98085.69;;;12.12;68.82
61035;BME280;46916;40.564;-7.958;2023-03-25T00:17:29;98089.41;;;12.09;68.97
61035;BME280;46916;40.564;-7.958;2023-03-25T00:19:30;98085.34;;;12.05;69.10
61035;BME280;46916;40.564;-7.958;2023-03-25T00:21:31;98095.84;;;12.05;69.36
61035;BME280;46916;40.564;-7.958;2023-03-25T00:23:32;98096.09;;;12.02;69.23
61035;BME280;46916;40.564;-7.958;2023-03-25T00:25:33;98095.25;;;12.02;69.42
61035;BME280;46916;40.564;-7.958;2023-03-25T00:27:34;98095.03;;;12.05;69.60
61035;BME280;46916;40.564;-7.958;2023-03-25T00:29:36;98087.00;;;12.06;69.84
61035;BME280;46916;40.564;-7.958;2023-03-25T00:31:36;98093.94;;;12.07;69.86
61035;BME280;46916;40.564;-7.958;2023-03-25T00:33:37;98104.56;;;12.06;69.74
61035;BME280;46916;40.564;-7.958;2023-03-25T00:35:40;98100.38;;;12.03;69.59
61035;BME280;46916;40.564;-7.958;2023-03-25T00:37:45;98096.34;;;11.99;69.55
61035;BME280;46916;40.564;-7.958;2023-03-25T00:39:47;98100.16;;;11.95;69.54
61035;BME280;46916;40.564;-7.958;2023-03-25T00:41:48;98097.91;;;11.90;69.61
61035;BME280;46916;40.564;-7.958;2023-03-25T00:43:50;98097.56;;;11.84;69.77
61035;BME280;46916;40.564;-7.958;2023-03-25T00:45:55;98090.63;;;11.83;69.79
61035;BME280;46916;40.564;-7.958;2023-03-25T00:47:56;98083.69;;;11.82;69.99
61035;BME280;46916;40.564;-7.958;2023-03-25T00:49:57;98091.69;;;11.80;70.13
61035;BME280;46916;40.564;-7.958;2023-03-25T00:51:58;98087.50;;;11.66;70.99
61035;BME280;46916;40.564;-7.958;2023-03-25T00:53:59;98090.41;;;11.52;71.62
61035;BME280;46916;40.564;-7.958;2023-03-25T00:55:59;98087.06;;;11.39;71.69
61035;BME280;46916;40.564;-7.958;2023-03-25T00:58:01;98087.28;;;11.36;72.12
61035;BME280;46916;40.564;-7.958;2023-03-25T01:00:04;98079.06;;;11.40;72.45
61035;BME280;46916;40.564;-7.958;2023-03-25T01:02:07;98083.09;;;11.33;72.29
61035;BME280;46916;40.564;-7.958;2023-03-25T01:04:08;98082.50;;;11.30;72.53
61035;BME280;46916;40.564;-7.958;2023-03-25T01:06:13;98078.44;;;11.26;72.67
61035;BME280;46916;40.564;-7.958;2023-03-25T01:08:14;98076.19;;;11.32;72.45
61035;BME280;46916;40.564;-7.958;2023-03-25T01:10:17;98079.19;;;11.39;72.33
61035;BME280;46916;40.564;-7.958;2023-03-25T01:12:17;98070.38;;;11.40;72.39
61035;BME280;46916;40.564;-7.958;2023-03-25T01:14:21;98070.13;;;11.32;72.63
61035;BME280;46916;40.564;-7.958;2023-03-25T01:16:23;98073.22;;;11.14;73.06
61035;BME280;46916;40.564;-7.958;2023-03-25T01:18:24;98074.16;;;11.02;73.38
61035;BME280;46916;40.564;-7.958;2023-03-25T01:20:25;98074.75;;;10.95;74.29
61035;BME280;46916;40.564;-7.958;2023-03-25T01:22:27;98066.28;;;10.91;74.43
61035;BME280;46916;40.564;-7.958;2023-03-25T01:24:28;98067.09;;;10.91;74.18
61035;BME280;46916;40.564;-7.958;2023-03-25T01:26:29;98064.69;;;10.88;74.32
61035;BME280;46916;40.564;-7.958;2023-03-25T01:28:29;98059.81;;;10.84;74.66
61035;BME280;46916;40.564;-7.958;2023-03-25T01:30:30;98064.84;;;10.87;74.48
61035;BME280;46916;40.564;-7.958;2023-03-25T01:32:31;98056.00;;;10.88;74.69
61035;BME280;46916;40.564;-7.958;2023-03-25T01:34:32;98051.00;;;10.85;74.80
61035;BME280;46916;40.564;-7.958;2023-03-25T01:36:33;98052.78;;;10.84;75.04
61035;BME280;46916;40.564;-7.958;2023-03-25T01:38:35;98055.63;;;10.81;75.27
61035;BME280;46916;40.564;-7.958;2023-03-25T01:40:36;98060.78;;;10.83;75.04
61035;BME280;46916;40.564;-7.958;2023-03-25T01:42:37;98057.56;;;10.90;74.89
61035;BME280;46916;40.564;-7.958;2023-03-25T01:46:39;98051.84;;;10.97;74.67
61035;BME280;46916;40.564;-7.958;2023-03-25T01:48:44;98049.59;;;10.92;74.50
61035;BME280;46916;40.564;-7.958;2023-03-25T01:50:52;98045.91;;;10.95;74.30
61035;BME280;46916;40.564;-7.958;2023-03-25T01:52:55;98046.25;;;11.01;74.37
61035;BME280;46916;40.564;-7.958;2023-03-25T01:54:57;98048.78;;;11.03;74.12
61035;BME280;46916;40.564;-7.958;2023-03-25T01:56:58;98051.28;;;11.04;74.24
61035;BME280;46916;40.564;-7.958;2023-03-25T01:59:02;98049.13;;;11.09;73.77
61035;BME280;46916;40.564;-7.958;2023-03-25T02:01:05;98051.38;;;11.14;73.22
61035;BME280;46916;40.564;-7.958;2023-03-25T02:03:06;98046.16;;;11.14;73.08
61035;BME280;46916;40.564;-7.958;2023-03-25T02:05:29;98038.19;;;11.15;73.18
61035;BME280;46916;40.564;-7.958;2023-03-25T02:07:34;98037.44;;;11.13;72.81
61035;BME280;46916;40.564;-7.958;2023-03-25T02:09:37;98030.53;;;11.12;72.90
61035;BME280;46916;40.564;-7.958;2023-03-25T02:11:41;98018.84;;;11.05;73.31
61035;BME280;46916;40.564;-7.958;2023-03-25T02:13:41;98025.03;;;10.93;73.64
61035;BME280;46916;40.564;-7.958;2023-03-25T02:32:47;98021.38;;;10.96;73.12
61035;BME280;46916;40.564;-7.958;2023-03-25T02:39:15;98021.50;;;10.94;73.41
61035;BME280;46916;40.564;-7.958;2023-03-25T02:41:27;98003.97;;;10.95;72.80
61035;BME280;46916;40.564;-7.958;2023-03-25T02:43:35;98013.13;;;10.89;72.63
61035;BME280;46916;40.564;-7.958;2023-03-25T02:45:46;98014.09;;;10.88;72.62
61035;BME280;46916;40.564;-7.958;2023-03-25T02:47:54;98009.31;;;10.82;72.48
61035;BME280;46916;40.564;-7.958;2023-03-25T02:52:33;98004.53;;;10.76;72.62
61035;BME280;46916;40.564;-7.958;2023-03-25T02:54:39;98006.47;;;10.74;72.51
61035;BME280;46916;40.564;-7.958;2023-03-25T02:56:42;98003.47;;;10.67;72.11
61035;BME280;46916;40.564;-7.958;2023-03-25T02:58:47;98014.28;;;10.62;72.49
61035;BME280;46916;40.564;-7.958;2023-03-25T03:00:51;98010.59;;;10.65;72.67
61035;BME280;46916;40.564;-7.958;2023-03-25T03:02:55;98002.72;;;10.65;72.20
61035;BME280;46916;40.564;-7.958;2023-03-25T03:05:00;98005.34;;;10.65;72.61
61035;BME280;46916;40.564;-7.958;2023-03-25T03:07:01;98008.69;;;10.67;72.03
61035;BME280;46916;40.564;-7.958;2023-03-25T03:09:33;97998.22;;;10.67;72.11
61035;BME280;46916;40.564;-7.958;2023-03-25T03:19:25;97974.00;;;10.52;71.89
61035;BME280;46916;40.564;-7.958;2023-03-25T03:21:37;97968.06;;;10.50;72.15
61035;BME280;46916;40.564;-7.958;2023-03-25T03:25:55;97970.78;;;10.13;73.56
61035;BME280;46916;40.564;-7.958;2023-03-25T03:30:27;97973.47;;;10.01;73.28
61035;BME280;46916;40.564;-7.958;2023-03-25T03:34:45;97972.66;;;10.11;72.39
61035;BME280;46916;40.564;-7.958;2023-03-25T03:36:50;97965.78;;;10.10;72.63
61035;BME280;46916;40.564;-7.958;2023-03-25T03:39:03;97974.69;;;10.08;72.32
61035;BME280;46916;40.564;-7.958;2023-03-25T03:41:09;97971.47;;;10.04;72.62
61035;BME280;46916;40.564;-7.958;2023-03-25T03:43:27;97974.31;;;10.01;72.32
61035;BME280;46916;40.564;-7.958;2023-03-25T03:45:40;97973.13;;;10.05;72.29
61035;BME280;46916;40.564;-7.958;2023-03-25T03:47:46;97972.91;;;10.08;72.33
61035;BME280;46916;40.564;-7.958;2023-03-25T03:49:56;97971.84;;;10.11;72.45
61035;BME280;46916;40.564;-7.958;2023-03-25T03:52:09;97971.50;;;10.15;71.96
61035;BME280;46916;40.564;-7.958;2023-03-25T03:54:29;97978.44;;;10.16;71.97
61035;BME280;46916;40.564;-7.958;2023-03-25T03:56:37;97984.38;;;10.18;72.05
61035;BME280;46916;40.564;-7.958;2023-03-25T03:58:41;97978.31;;;10.18;71.64
61035;BME280;46916;40.564;-7.958;2023-03-25T04:00:47;97980.69;;;10.21;71.50
61035;BME280;46916;40.564;-7.958;2023-03-25T04:03:11;97973.69;;;10.22;71.91
61035;BME280;46916;40.564;-7.958;2023-03-25T04:05:15;97975.47;;;10.21;71.57
61035;BME280;46916;40.564;-7.958;2023-03-25T04:07:23;97978.91;;;10.22;71.96
61035;BME280;46916;40.564;-7.958;2023-03-25T04:09:51;97977.94;;;10.23;71.95
61035;BME280;46916;40.564;-7.958;2023-03-25T04:12:01;97980.91;;;10.18;71.85
61035;BME280;46916;40.564;-7.958;2023-03-25T04:14:03;97984.59;;;10.15;71.67
61035;BME280;46916;40.564;-7.958;2023-03-25T04:16:05;97982.31;;;10.11;71.50
61035;BME280;46916;40.564;-7.958;2023-03-25T04:18:05;97989.47;;;10.09;71.96
61035;BME280;46916;40.564;-7.958;2023-03-25T04:20:07;97982.03;;;10.03;71.86
61035;BME280;46916;40.564;-7.958;2023-03-25T04:22:10;97976.09;;;10.01;72.22
61035;BME280;46916;40.564;-7.958;2023-03-25T04:24:13;97979.56;;;10.01;72.12
61035;BME280;46916;40.564;-7.958;2023-03-25T04:26:16;97980.38;;;10.02;71.78
61035;BME280;46916;40.564;-7.958;2023-03-25T04:28:18;97972.88;;;9.97;71.93
61035;BME280;46916;40.564;-7.958;2023-03-25T04:30:19;97981.78;;;9.95;72.21
61035;BME280;46916;40.564;-7.958;2023-03-25T04:32:20;97977.63;;;9.92;72.59
61035;BME280;46916;40.564;-7.958;2023-03-25T04:34:21;97967.97;;;9.92;72.94
61035;BME280;46916;40.564;-7.958;2023-03-25T04:36:23;97966.91;;;9.95;72.60
61035;BME280;46916;40.564;-7.958;2023-03-25T04:38:24;97965.84;;;9.98;72.50
61035;BME280;46916;40.564;-7.958;2023-03-25T04:40:25;97967.41;;;10.00;72.53
61035;BME280;46916;40.564;-7.958;2023-03-25T04:42:25;97972.53;;;10.02;72.47
61035;BME280;46916;40.564;-7.958;2023-03-25T04:44:32;97973.34;;;10.02;72.30
61035;BME280;46916;40.564;-7.958;2023-03-25T04:46:38;97975.28;;;10.00;72.05
61035;BME280;46916;40.564;-7.958;2023-03-25T04:48:40;97970.03;;;10.00;72.21
61035;BME280;46916;40.564;-7.958;2023-03-25T04:50:44;97964.06;;;9.98;71.93
61035;BME280;46916;40.564;-7.958;2023-03-25T04:52:45;97963.34;;;9.96;72.19
61035;BME280;46916;40.564;-7.958;2023-03-25T04:54:46;97955.81;;;9.91;71.75
61035;BME280;46916;40.564;-7.958;2023-03-25T04:56:47;97962.47;;;9.84;71.31
61035;BME280;46916;40.564;-7.958;2023-03-25T04:58:48;97958.00;;;9.74;70.75
61035;BME280;46916;40.564;-7.958;2023-03-25T05:00:50;97965.47;;;9.43;71.43
61035;BME280;46916;40.564;-7.958;2023-03-25T05:02:53;97966.03;;;9.23;72.31
61035;BME280;46916;40.564;-7.958;2023-03-25T05:04:54;97968.78;;;9.08;72.90
61035;BME280;46916;40.564;-7.958;2023-03-25T05:07:01;97965.69;;;8.90;73.67
61035;BME280;46916;40.564;-7.958;2023-03-25T05:09:03;97956.78;;;8.80;74.06
61035;BME280;46916;40.564;-7.958;2023-03-25T05:11:05;97960.38;;;8.66;74.96
61035;BME280;46916;40.564;-7.958;2023-03-25T05:13:06;97957.63;;;8.55;75.63
61035;BME280;46916;40.564;-7.958;2023-03-25T05:15:08;97957.00;;;8.52;75.75
61035;BME280;46916;40.564;-7.958;2023-03-25T05:17:09;97966.81;;;8.48;75.83
61035;BME280;46916;40.564;-7.958;2023-03-25T05:19:10;97965.47;;;8.42;75.87
61035;BME280;46916;40.564;-7.958;2023-03-25T05:21:11;97964.94;;;8.37;76.13
61035;BME280;46916;40.564;-7.958;2023-03-25T05:23:12;97955.16;;;8.41;76.05
61035;BME280;46916;40.564;-7.958;2023-03-25T05:25:17;97958.78;;;8.51;76.11
61035;BME280;46916;40.564;-7.958;2023-03-25T05:27:18;97960.16;;;8.70;75.57
61035;BME280;46916;40.564;-7.958;2023-03-25T05:29:19;97952.41;;;8.81;75.19
61035;BME280;46916;40.564;-7.958;2023-03-25T05:31:20;97947.59;;;8.87;74.88
61035;BME280;46916;40.564;-7.958;2023-03-25T05:33:20;97959.00;;;8.86;74.94
61035;BME280;46916;40.564;-7.958;2023-03-25T05:35:21;97957.63;;;8.81;75.36
61035;BME280;46916;40.564;-7.958;2023-03-25T05:37:22;97949.28;;;8.76;75.16
61035;BME280;46916;40.564;-7.958;2023-03-25T05:39:23;97952.94;;;8.73;75.51
61035;BME280;46916;40.564;-7.958;2023-03-25T05:41:26;97958.06;;;8.75;75.10
61035;BME280;46916;40.564;-7.958;2023-03-25T05:43:37;97954.31;;;8.66;75.49
61035;BME280;46916;40.564;-7.958;2023-03-25T05:45:38;97954.41;;;8.64;75.46
61035;BME280;46916;40.564;-7.958;2023-03-25T05:47:39;97952.41;;;8.68;75.36
61035;BME280;46916;40.564;-7.958;2023-03-25T05:49:40;97955.53;;;8.73;75.36
61035;BME280;46916;40.564;-7.958;2023-03-25T05:51:41;97955.00;;;8.81;75.29
61035;BME280;46916;40.564;-7.958;2023-03-25T05:53:45;97947.41;;;8.90;74.56
61035;BME280;46916;40.564;-7.958;2023-03-25T05:55:49;97951.13;;;8.99;74.40
61035;BME280;46916;40.564;-7.958;2023-03-25T05:57:51;97944.53;;;9.06;74.42
61035;BME280;46916;40.564;-7.958;2023-03-25T05:59:51;97948.16;;;9.16;73.72
61035;BME280;46916;40.564;-7.958;2023-03-25T06:01:52;97944.28;;;9.22;73.63
61035;BME280;46916;40.564;-7.958;2023-03-25T06:03:53;97945.00;;;9.24;73.25
61035;BME280;46916;40.564;-7.958;2023-03-25T06:05:54;97946.59;;;9.27;73.33
61035;BME280;46916;40.564;-7.958;2023-03-25T06:07:54;97946.69;;;9.25;73.26
61035;BME280;46916;40.564;-7.958;2023-03-25T06:09:56;97953.81;;;9.23;73.23
61035;BME280;46916;40.564;-7.958;2023-03-25T06:11:57;97955.34;;;9.26;73.05
61035;BME280;46916;40.564;-7.958;2023-03-25T06:13:58;97955.88;;;9.31;73.29
61035;BME280;46916;40.564;-7.958;2023-03-25T06:16:00;97956.47;;;9.34;73.13
61035;BME280;46916;40.564;-7.958;2023-03-25T06:18:02;97964.31;;;9.34;72.98
61035;BME280;46916;40.564;-7.958;2023-03-25T06:20:05;97973.72;;;9.37;72.68
61035;BME280;46916;40.564;-7.958;2023-03-25T06:22:10;97984.94;;;9.39;72.48
61035;BME280;46916;40.564;-7.958;2023-03-25T06:24:11;97988.25;;;9.41;72.40
61035;BME280;46916;40.564;-7.958;2023-03-25T06:26:12;97974.69;;;9.36;72.36
61035;BME280;46916;40.564;-7.958;2023-03-25T06:28:13;97977.63;;;9.31;72.61
61035;BME280;46916;40.564;-7.958;2023-03-25T06:30:18;97987.25;;;9.31;71.97
61035;BME280;46916;40.564;-7.958;2023-03-25T06:32:19;97984.72;;;9.29;71.84
61035;BME280;46916;40.564;-7.958;2023-03-25T06:34:19;97983.06;;;9.28;72.26
61035;BME280;46916;40.564;-7.958;2023-03-25T06:36:20;97985.56;;;9.30;72.27
61035;BME280;46916;40.564;-7.958;2023-03-25T06:38:21;97982.84;;;9.31;72.43
61035;BME280;46916;40.564;-7.958;2023-03-25T06:40:43;97983.47;;;9.35;72.86
61035;BME280;46916;40.564;-7.958;2023-03-25T06:42:44;97989.41;;;9.37;72.98
61035;BME280;46916;40.564;-7.958;2023-03-25T06:45:11;97979.06;;;9.35;73.14
61035;BME280;46916;40.564;-7.958;2023-03-25T06:47:19;97989.41;;;9.37;73.64
61035;BME280;46916;40.564;-7.958;2023-03-25T06:49:23;97984.81;;;9.40;73.69
61035;BME280;46916;40.564;-7.958;2023-03-25T06:51:24;97988.25;;;9.41;74.22
61035;BME280;46916;40.564;-7.958;2023-03-25T06:53:24;97993.28;;;9.44;74.29
61035;BME280;46916;40.564;-7.958;2023-03-25T06:55:25;97992.13;;;9.48;73.91
61035;BME280;46916;40.564;-7.958;2023-03-25T06:57:26;97993.44;;;9.54;74.05
61035;BME280;46916;40.564;-7.958;2023-03-25T06:59:27;97996.56;;;9.59;73.32
61035;BME280;46916;40.564;-7.958;2023-03-25T07:01:27;98000.03;;;9.59;73.18
61035;BME280;46916;40.564;-7.958;2023-03-25T07:03:28;97994.06;;;9.57;72.66
61035;BME280;46916;40.564;-7.958;2023-03-25T07:05:29;97990.94;;;9.52;72.25
61035;BME280;46916;40.564;-7.958;2023-03-25T07:07:30;97991.63;;;9.43;71.75
61035;BME280;46916;40.564;-7.958;2023-03-25T07:09:31;97993.59;;;9.39;71.84
61035;BME280;46916;40.564;-7.958;2023-03-25T07:11:32;98003.53;;;9.34;71.48
61035;BME280;46916;40.564;-7.958;2023-03-25T07:13:33;98001.03;;;9.33;71.50
61035;BME280;46916;40.564;-7.958;2023-03-25T07:15:34;97995.81;;;9.33;71.78
61035;BME280;46916;40.564;-7.958;2023-03-25T07:17:35;98006.75;;;9.38;71.81
61035;BME280;46916;40.564;-7.958;2023-03-25T07:19:35;98007.06;;;9.46;71.87
61035;BME280;46916;40.564;-7.958;2023-03-25T07:21:36;98002.84;;;9.56;71.77
61035;BME280;46916;40.564;-7.958;2023-03-25T07:23:37;98005.03;;;9.62;71.61
61035;BME280;46916;40.564;-7.958;2023-03-25T07:25:37;98004.69;;;9.67;71.71
61035;BME280;46916;40.564;-7.958;2023-03-25T07:27:39;98008.03;;;9.69;71.45
61035;BME280;46916;40.564;-7.958;2023-03-25T07:29:46;98021.28;;;9.79;71.01
61035;BME280;46916;40.564;-7.958;2023-03-25T07:31:46;98022.66;;;9.84;70.47
61035;BME280;46916;40.564;-7.958;2023-03-25T07:33:47;98022.59;;;9.97;70.86
61035;BME280;46916;40.564;-7.958;2023-03-25T07:35:48;98024.09;;;10.12;69.89
61035;BME280;46916;40.564;-7.958;2023-03-25T07:37:48;98013.59;;;10.25;69.64
61035;BME280;46916;40.564;-7.958;2023-03-25T07:39:49;98015.63;;;10.33;69.16
61035;BME280;46916;40.564;-7.958;2023-03-25T07:41:51;98022.59;;;10.45;67.88
61035;BME280;46916;40.564;-7.958;2023-03-25T07:44:04;98017.91;;;10.49;66.97
61035;BME280;46916;40.564;-7.958;2023-03-25T07:46:06;98016.59;;;10.43;67.39
61035;BME280;46916;40.564;-7.958;2023-03-25T07:48:06;98019.78;;;10.35;67.46
61035;BME280;46916;40.564;-7.958;2023-03-25T07:50:12;98022.88;;;10.29;68.31
61035;BME280;46916;40.564;-7.958;2023-03-25T07:52:13;98017.53;;;10.31;68.34
61035;BME280;46916;40.564;-7.958;2023-03-25T07:54:14;98015.84;;;10.30;68.57
61035;BME280;46916;40.564;-7.958;2023-03-25T07:56:14;98014.13;;;10.41;68.83
61035;BME280;46916;40.564;-7.958;2023-03-25T07:58:18;98014.25;;;10.51;68.58
61035;BME280;46916;40.564;-7.958;2023-03-25T08:00:19;98015.38;;;10.71;68.17
61035;BME280;46916;40.564;-7.958;2023-03-25T08:02:20;98017.41;;;10.79;68.02
61035;BME280;46916;40.564;-7.958;2023-03-25T08:04:21;98017.19;;;10.93;67.42
61035;BME280;46916;40.564;-7.958;2023-03-25T08:06:22;98011.72;;;10.96;66.94
61035;BME280;46916;40.564;-7.958;2023-03-25T08:08:23;98018.84;;;11.05;67.09
61035;BME280;46916;40.564;-7.958;2023-03-25T08:10:23;98017.22;;;11.15;66.77
61035;BME280;46916;40.564;-7.958;2023-03-25T08:12:24;98016.59;;;11.34;66.39
61035;BME280;46916;40.564;-7.958;2023-03-25T08:14:25;98020.53;;;11.51;65.61
61035;BME280;46916;40.564;-7.958;2023-03-25T08:16:28;98018.97;;;11.60;65.59
61035;BME280;46916;40.564;-7.958;2023-03-25T08:18:29;98017.84;;;11.74;65.44
61035;BME280;46916;40.564;-7.958;2023-03-25T08:20:29;98014.50;;;11.94;65.11
61035;BME280;46916;40.564;-7.958;2023-03-25T08:22:31;98019.09;;;12.13;64.87
61035;BME280;46916;40.564;-7.958;2023-03-25T08:24:32;98024.75;;;12.29;64.33
61035;BME280;46916;40.564;-7.958;2023-03-25T08:26:33;98027.66;;;12.47;64.12
61035;BME280;46916;40.564;-7.958;2023-03-25T08:28:34;98024.72;;;12.61;63.93
61035;BME280;46916;40.564;-7.958;2023-03-25T08:30:36;98030.28;;;12.68;63.89
61035;BME280;46916;40.564;-7.958;2023-03-25T08:32:40;98035.63;;;12.78;63.64
61035;BME280;46916;40.564;-7.958;2023-03-25T08:34:41;98017.72;;;12.93;63.82
61035;BME280;46916;40.564;-7.958;2023-03-25T08:36:41;98024.69;;;13.03;64.05
61035;BME280;46916;40.564;-7.958;2023-03-25T08:38:42;98020.84;;;13.07;64.20
61035;BME280;46916;40.564;-7.958;2023-03-25T08:40:42;98030.25;;;13.10;64.87
61035;BME280;46916;40.564;-7.958;2023-03-25T08:42:43;98031.28;;;13.19;65.01
61035;BME280;46916;40.564;-7.958;2023-03-25T08:44:45;98028.16;;;13.25;64.75
61035;BME280;46916;40.564;-7.958;2023-03-25T08:46:46;98031.19;;;13.30;64.96
61035;BME280;46916;40.564;-7.958;2023-03-25T08:48:46;98029.31;;;13.42;64.91
61035;BME280;46916;40.564;-7.958;2023-03-25T08:50:47;98030.31;;;13.50;64.69
61035;BME280;46916;40.564;-7.958;2023-03-25T08:52:48;98034.78;;;13.59;64.89
61035;BME280;46916;40.564;-7.958;2023-03-25T08:54:49;98037.59;;;13.68;64.82
61035;BME280;46916;40.564;-7.958;2023-03-25T08:56:49;98033.03;;;13.79;64.66
61035;BME280;46916;40.564;-7.958;2023-03-25T08:58:50;98031.41;;;13.88;64.85
61035;BME280;46916;40.564;-7.958;2023-03-25T09:00:53;98025.72;;;13.93;64.69
61035;BME280;46916;40.564;-7.958;2023-03-25T09:02:55;98029.34;;;14.01;65.19
61035;BME280;46916;40.564;-7.958;2023-03-25T09:04:58;98036.13;;;14.13;65.28
61035;BME280;46916;40.564;-7.958;2023-03-25T09:06:58;98037.41;;;14.29;65.08
61035;BME280;46916;40.564;-7.958;2023-03-25T09:08:59;98029.78;;;14.45;65.13
61035;BME280;46916;40.564;-7.958;2023-03-25T09:11:00;98034.09;;;14.66;64.64
61035;BME280;46916;40.564;-7.958;2023-03-25T09:13:01;98037.81;;;14.82;64.58
61035;BME280;46916;40.564;-7.958;2023-03-25T09:15:02;98039.88;;;14.98;64.47
61035;BME280;46916;40.564;-7.958;2023-03-25T09:17:03;98033.56;;;15.09;64.37
61035;BME280;46916;40.564;-7.958;2023-03-25T09:19:09;98028.28;;;15.19;63.96
61035;BME280;46916;40.564;-7.958;2023-03-25T09:21:10;98036.00;;;15.30;63.46
61035;BME280;46916;40.564;-7.958;2023-03-25T09:23:11;98037.25;;;15.35;63.64
61035;BME280;46916;40.564;-7.958;2023-03-25T09:25:11;98042.63;;;15.44;62.94
61035;BME280;46916;40.564;-7.958;2023-03-25T09:27:13;98048.84;;;15.52;62.40
61035;BME280;46916;40.564;-7.958;2023-03-25T09:29:14;98040.75;;;15.54;62.29
61035;BME280;46916;40.564;-7.958;2023-03-25T09:31:14;98041.47;;;15.56;62.40
61035;BME280;46916;40.564;-7.958;2023-03-25T09:33:15;98047.69;;;15.55;62.18
61035;BME280;46916;40.564;-7.958;2023-03-25T09:35:16;98045.22;;;15.53;62.45
61035;BME280;46916;40.564;-7.958;2023-03-25T09:37:16;98051.19;;;15.55;62.81
61035;BME280;46916;40.564;-7.958;2023-03-25T09:39:17;98055.88;;;15.61;62.63
61035;BME280;46916;40.564;-7.958;2023-03-25T09:41:56;98053.25;;;15.61;62.40
61035;BME280;46916;40.564;-7.958;2023-03-25T09:46:09;98054.22;;;15.60;62.70
61035;BME280;46916;40.564;-7.958;2023-03-25T09:50:34;98055.28;;;15.77;62.34
61035;BME280;46916;40.564;-7.958;2023-03-25T09:52:53;98056.41;;;15.75;62.09
61035;BME280;46916;40.564;-7.958;2023-03-25T09:54:59;98061.00;;;15.73;62.04
61035;BME280;46916;40.564;-7.958;2023-03-25T09:57:06;98051.28;;;15.73;61.97
61035;BME280;46916;40.564;-7.958;2023-03-25T09:59:14;98057.53;;;15.72;62.48
61035;BME280;46916;40.564;-7.958;2023-03-25T10:06:12;98060.91;;;15.92;62.45
61035;BME280;46916;40.564;-7.958;2023-03-25T10:13:16;98064.91;;;15.96;61.13
61035;BME280;46916;40.564;-7.958;2023-03-25T10:20:17;98061.59;;;16.12;60.38
61035;BME280;46916;40.564;-7.958;2023-03-25T10:22:36;98052.22;;;16.00;60.12
61035;BME280;46916;40.564;-7.958;2023-03-25T10:24:47;98064.59;;;15.99;60.39
61035;BME280;46916;40.564;-7.958;2023-03-25T10:26:59;98061.81;;;16.01;60.52
61035;BME280;46916;40.564;-7.958;2023-03-25T10:29:07;98065.59;;;15.98;60.08
61035;BME280;46916;40.564;-7.958;2023-03-25T10:31:15;98066.28;;;16.00;59.88
61035;BME280;46916;40.564;-7.958;2023-03-25T10:33:36;98057.06;;;16.04;60.09
61035;BME280;46916;40.564;-7.958;2023-03-25T10:35:41;98055.81;;;16.08;60.10
61035;BME280;46916;40.564;-7.958;2023-03-25T10:37:48;98060.09;;;16.09;59.80
61035;BME280;46916;40.564;-7.958;2023-03-25T10:39:51;98053.19;;;15.99;58.53
61035;BME280;46916;40.564;-7.958;2023-03-25T10:41:59;98061.88;;;15.91;58.37
61035;BME280;46916;40.564;-7.958;2023-03-25T10:44:06;98059.28;;;15.81;59.08
61035;BME280;46916;40.564;-7.958;2023-03-25T10:46:25;98063.31;;;15.85;59.78
61035;BME280;46916;40.564;-7.958;2023-03-25T10:48:28;98064.91;;;15.96;60.13
61035;BME280;46916;40.564;-7.958;2023-03-25T10:50:29;98060.09;;;16.09;60.15
61035;BME280;46916;40.564;-7.958;2023-03-25T10:52:30;98051.25;;;16.19;60.20
61035;BME280;46916;40.564;-7.958;2023-03-25T10:54:35;98055.66;;;16.28;59.94
61035;BME280;46916;40.564;-7.958;2023-03-25T10:56:48;98050.44;;;16.36;58.68
61035;BME280;46916;40.564;-7.958;2023-03-25T10:58:54;98052.31;;;16.44;57.95
61035;BME280;46916;40.564;-7.958;2023-03-25T11:00:56;98061.16;;;16.52;57.11
61035;BME280;46916;40.564;-7.958;2023-03-25T11:02:57;98054.59;;;16.56;56.58
61035;BME280;46916;40.564;-7.958;2023-03-25T11:05:01;98049.00;;;16.59;56.18
61035;BME280;46916;40.564;-7.958;2023-03-25T11:07:15;98052.75;;;16.57;56.37
61035;BME280;46916;40.564;-7.958;2023-03-25T11:09:28;98054.50;;;16.48;56.57
61035;BME280;46916;40.564;-7.958;2023-03-25T11:11:35;98058.16;;;16.47;57.46
61035;BME280;46916;40.564;-7.958;2023-03-25T11:13:36;98048.94;;;16.51;57.87
61035;BME280;46916;40.564;-7.958;2023-03-25T11:15:39;98040.53;;;16.56;56.86
61035;BME280;46916;40.564;-7.958;2023-03-25T11:17:41;98046.72;;;16.65;56.30
61035;BME280;46916;40.564;-7.958;2023-03-25T11:22:01;98048.06;;;16.69;53.06
61035;BME280;46916;40.564;-7.958;2023-03-25T11:24:05;98049.31;;;16.74;53.46
61035;BME280;46916;40.564;-7.958;2023-03-25T11:26:11;98049.84;;;16.78;54.02
61035;BME280;46916;40.564;-7.958;2023-03-25T11:28:17;98053.00;;;16.81;54.01
61035;BME280;46916;40.564;-7.958;2023-03-25T11:30:21;98049.75;;;16.88;54.46
61035;BME280;46916;40.564;-7.958;2023-03-25T11:32:36;98047.31;;;16.94;54.05
61035;BME280;46916;40.564;-7.958;2023-03-25T11:34:36;98047.69;;;16.99;53.66
61035;BME280;46916;40.564;-7.958;2023-03-25T11:38:52;98035.84;;;17.12;52.20
61035;BME280;46916;40.564;-7.958;2023-03-25T11:40:56;98034.84;;;17.13;51.48
61035;BME280;46916;40.564;-7.958;2023-03-25T11:42:59;98025.94;;;17.14;49.86
61035;BME280;46916;40.564;-7.958;2023-03-25T11:45:01;98031.16;;;17.05;50.21
61035;BME280;46916;40.564;-7.958;2023-03-25T11:47:05;98033.28;;;17.02;50.66
61035;BME280;46916;40.564;-7.958;2023-03-25T11:49:07;98032.09;;;16.96;50.64
61035;BME280;46916;40.564;-7.958;2023-03-25T11:51:13;98031.44;;;16.94;51.13
61035;BME280;46916;40.564;-7.958;2023-03-25T11:53:15;98035.88;;;16.94;50.79